createdAt,value
2018-09-04T00:00:21.388Z,0.00
2018-09-04T00:01:21.529Z,0.00
2018-09-04T00:02:21.682Z,0.00
2018-09-04T00:03:21.823Z,0.00
2018-09-04T00:04:21.955Z,0.00
2018-09-04T00:05:22.097Z,0.00
2018-09-04T00:06:22.266Z,0.00
2018-09-04T00:07:22.400Z,0.00
2018-09-04T00:08:22.534Z,0.00
2018-09-04T00:09:22.708Z,0.00
2018-09-04T00:10:22.838Z,0.00
2018-09-04T00:11:22.975Z,0.00
2018-09-04T00:12:23.113Z,0.00
2018-09-04T00:13:23.290Z,0.00
2018-09-04T00:14:23.404Z,0.00
2018-09-04T00:15:23.538Z,0.00
2018-09-04T00:16:23.676Z,0.00
2018-09-04T00:17:23.833Z,0.00
2018-09-04T00:18:23.964Z,0.00
2018-09-04T00:19:24.103Z,0.00
2018-09-04T00:20:24.262Z,0.00
2018-09-04T00:21:24.407Z,0.00
2018-09-04T00:22:24.540Z,0.00
2018-09-04T00:23:24.696Z,0.00
2018-09-04T00:24:24.831Z,0.00
2018-09-04T00:25:24.973Z,0.00
2018-09-04T00:26:25.113Z,0.00
2018-09-04T00:27:25.251Z,0.00
2018-09-04T00:28:25.388Z,0.00
2018-09-04T00:29:25.532Z,0.00
2018-09-04T00:30:25.671Z,0.00
2018-09-04T00:31:25.822Z,0.00
2018-09-04T00:32:25.958Z,0.00
2018-09-04T00:33:26.142Z,0.00
2018-09-04T00:34:26.391Z,0.00
2018-09-04T00:35:26.431Z,0.00
2018-09-04T00:36:26.571Z,0.00
2018-09-04T00:37:26.715Z,0.00
2018-09-04T00:38:26.860Z,0.00
2018-09-04T00:39:26.998Z,0.00
2018-09-04T00:40:27.136Z,0.00
2018-09-04T00:41:27.273Z,0.00
2018-09-04T00:42:27.483Z,0.00
2018-09-04T00:43:27.498Z,0.00
2018-09-04T00:44:27.638Z,0.00
2018-09-04T00:45:27.778Z,0.00
2018-09-04T00:46:27.917Z,0.00
2018-09-04T00:47:28.063Z,0.00
2018-09-04T00:48:28.198Z,0.00
2018-09-04T00:49:28.339Z,0.00
2018-09-04T00:50:28.474Z,0.00
2018-09-04T00:51:28.612Z,0.00
2018-09-04T00:52:28.756Z,0.00
2018-09-04T00:53:28.899Z,0.00
2018-09-04T00:54:29.045Z,0.00
2018-09-04T00:55:29.178Z,0.00
2018-09-04T00:56:29.321Z,0.00
2018-09-04T00:57:29.513Z,0.00
2018-09-04T00:58:29.624Z,0.00
2018-09-04T00:59:29.761Z,0.00
2018-09-04T01:00:29.905Z,0.00
2018-09-04T01:01:30.058Z,0.00
2018-09-04T01:02:30.195Z,0.00
2018-09-04T01:03:30.334Z,0.00
2018-09-04T01:04:30.498Z,0.00
2018-09-04T01:05:30.625Z,0.00
2018-09-04T01:06:30.764Z,0.00
2018-09-04T01:07:30.896Z,0.00
2018-09-04T01:08:31.048Z,0.00
2018-09-04T01:09:31.186Z,0.00
2018-09-04T01:10:31.317Z,0.00
2018-09-04T01:11:31.475Z,0.00
2018-09-04T01:12:31.607Z,0.00
2018-09-04T01:13:31.749Z,0.00
2018-09-04T01:14:31.884Z,0.00
2018-09-04T01:15:32.027Z,0.00
2018-09-04T01:16:32.167Z,0.00
2018-09-04T01:17:32.306Z,0.00
2018-09-04T01:18:32.443Z,0.00
2018-09-04T01:19:32.580Z,0.00
2018-09-04T01:20:32.715Z,0.00
2018-09-04T01:21:32.855Z,0.00
2018-09-04T01:22:32.992Z,0.00
2018-09-04T01:23:33.126Z,0.00
2018-09-04T01:24:33.276Z,0.00
2018-09-04T01:25:33.412Z,0.00
2018-09-04T01:26:33.621Z,0.00
2018-09-04T01:27:33.638Z,0.00
2018-09-04T01:28:33.775Z,0.00
2018-09-04T01:29:33.914Z,0.00
2018-09-04T01:30:34.092Z,0.00
2018-09-04T01:31:34.191Z,0.00
2018-09-04T01:32:34.328Z,0.00
2018-09-04T01:33:34.469Z,0.00
2018-09-04T01:34:34.603Z,0.00
2018-09-04T01:35:34.740Z,0.00
2018-09-04T01:36:34.882Z,0.00
2018-09-04T01:37:35.032Z,0.00
2018-09-04T01:38:35.166Z,0.00
2018-09-04T01:39:35.303Z,0.00
2018-09-04T01:40:35.441Z,0.00
2018-09-04T01:41:35.573Z,0.00
2018-09-04T01:42:35.715Z,0.00
2018-09-04T01:43:35.900Z,0.00
2018-09-04T01:44:36.031Z,0.00
2018-09-04T01:45:36.166Z,0.00
2018-09-04T01:46:36.307Z,0.00
2018-09-04T01:47:36.447Z,0.00
2018-09-04T01:48:36.586Z,0.00
2018-09-04T01:49:36.731Z,0.00
2018-09-04T01:50:36.858Z,0.00
2018-09-04T01:51:37.036Z,0.00
2018-09-04T01:52:37.137Z,0.00
2018-09-04T01:53:37.280Z,0.00
2018-09-04T01:54:37.424Z,0.00
2018-09-04T01:55:37.591Z,0.00
2018-09-04T01:56:37.719Z,0.00
2018-09-04T01:57:37.855Z,0.00
2018-09-04T01:58:38.021Z,0.00
2018-09-04T01:59:38.150Z,0.00
2018-09-04T02:00:38.288Z,0.00
2018-09-04T02:01:38.428Z,0.00
2018-09-04T02:02:38.575Z,0.00
2018-09-04T02:03:38.712Z,0.00
2018-09-04T02:04:38.854Z,0.00
2018-09-04T02:05:38.987Z,0.00
2018-09-04T02:06:39.144Z,0.00
2018-09-04T02:07:39.281Z,0.00
2018-09-04T02:08:39.418Z,0.00
2018-09-04T02:09:39.558Z,0.00
2018-09-04T02:10:39.695Z,0.00
2018-09-04T02:11:39.838Z,0.00
2018-09-04T02:12:39.986Z,0.00
2018-09-04T02:13:40.124Z,0.00
2018-09-04T02:14:40.262Z,0.00
2018-09-04T02:15:40.421Z,0.00
2018-09-04T02:16:40.560Z,0.00
2018-09-04T02:17:40.693Z,0.00
2018-09-04T02:18:40.835Z,0.00
2018-09-04T02:19:40.984Z,0.00
2018-09-04T02:20:41.123Z,0.00
2018-09-04T02:21:41.262Z,0.00
2018-09-04T02:22:41.394Z,0.00
2018-09-04T02:23:41.551Z,0.00
2018-09-04T02:24:41.683Z,0.00
2018-09-04T02:25:41.829Z,0.00
2018-09-04T02:26:41.953Z,0.00
2018-09-04T02:27:42.089Z,0.00
2018-09-04T02:28:42.237Z,0.00
2018-09-04T02:29:42.377Z,0.00
2018-09-04T02:30:42.519Z,0.00
2018-09-04T02:31:42.655Z,0.00
2018-09-04T02:32:42.796Z,0.00
2018-09-04T02:33:42.938Z,0.00
2018-09-04T02:34:43.074Z,0.00
2018-09-04T02:35:43.212Z,0.00
2018-09-04T02:36:43.357Z,0.00
2018-09-04T02:37:43.494Z,0.00
2018-09-04T02:38:43.632Z,0.00
2018-09-04T02:39:43.765Z,0.00
2018-09-04T02:40:43.907Z,0.00
2018-09-04T02:41:44.041Z,0.00
2018-09-04T02:42:44.182Z,0.00
2018-09-04T02:43:44.324Z,0.00
2018-09-04T02:44:44.464Z,0.00
2018-09-04T02:45:44.598Z,0.00
2018-09-04T02:46:44.737Z,0.00
2018-09-04T02:47:44.888Z,0.00
2018-09-04T02:48:45.017Z,0.00
2018-09-04T02:49:45.158Z,0.00
2018-09-04T02:50:45.299Z,0.00
2018-09-04T02:51:45.489Z,0.00
2018-09-04T02:52:45.633Z,0.00
2018-09-04T02:53:45.769Z,0.00
2018-09-04T02:54:45.912Z,0.00
2018-09-04T02:55:46.057Z,0.00
2018-09-04T02:56:46.193Z,0.00
2018-09-04T02:57:46.333Z,0.00
2018-09-04T02:58:46.472Z,0.00
2018-09-04T02:59:46.610Z,0.00
2018-09-04T03:00:46.749Z,0.00
2018-09-04T03:01:46.893Z,0.00
2018-09-04T03:02:47.037Z,0.00
2018-09-04T03:03:47.173Z,0.00
2018-09-04T03:04:47.311Z,0.00
2018-09-04T03:05:47.456Z,0.00
2018-09-04T03:06:47.601Z,0.00
2018-09-04T03:07:47.741Z,0.00
2018-09-04T03:08:47.882Z,0.00
2018-09-04T03:09:48.022Z,0.00
2018-09-04T03:10:48.164Z,0.00
2018-09-04T03:11:48.302Z,0.00
2018-09-04T03:12:48.438Z,0.00
2018-09-04T03:13:48.627Z,0.00
2018-09-04T03:14:48.708Z,0.00
2018-09-04T03:15:48.851Z,0.00
2018-09-04T03:16:49.012Z,0.00
2018-09-04T03:17:49.137Z,0.00
2018-09-04T03:18:49.274Z,0.00
2018-09-04T03:19:49.438Z,0.00
2018-09-04T03:20:49.576Z,0.00
2018-09-04T03:21:49.716Z,0.00
2018-09-04T03:22:49.847Z,0.00
2018-09-04T03:23:49.984Z,0.00
2018-09-04T03:24:50.118Z,0.00
2018-09-04T03:25:50.259Z,0.00
2018-09-04T03:26:50.404Z,0.00
2018-09-04T03:27:50.551Z,0.00
2018-09-04T03:28:50.684Z,0.00
2018-09-04T03:29:50.823Z,0.00
2018-09-04T03:30:50.971Z,0.00
2018-09-04T03:31:51.104Z,0.00
2018-09-04T03:32:51.234Z,0.00
2018-09-04T03:33:51.382Z,0.00
2018-09-04T03:34:51.541Z,0.00
2018-09-04T03:35:51.680Z,0.00
2018-09-04T03:36:51.819Z,0.00
2018-09-04T03:37:51.958Z,0.00
2018-09-04T03:38:52.125Z,0.00
2018-09-04T03:39:52.260Z,0.00
2018-09-04T03:40:52.402Z,0.00
2018-09-04T03:41:52.550Z,0.00
2018-09-04T03:42:52.676Z,0.00
2018-09-04T03:43:52.816Z,0.00
2018-09-04T03:44:52.953Z,0.00
2018-09-04T03:45:53.092Z,0.00
2018-09-04T03:46:53.247Z,0.00
2018-09-04T03:47:53.379Z,0.00
2018-09-04T03:48:53.521Z,0.00
2018-09-04T03:49:53.684Z,0.00
2018-09-04T03:50:53.851Z,0.00
2018-09-04T03:51:53.992Z,0.00
2018-09-04T03:52:54.134Z,0.00
2018-09-04T03:53:54.323Z,0.00
2018-09-04T03:54:54.466Z,0.00
2018-09-04T03:55:54.607Z,0.00
2018-09-04T03:56:54.748Z,0.00
2018-09-04T03:57:54.884Z,0.00
2018-09-04T03:58:55.030Z,0.00
2018-09-04T03:59:55.166Z,0.00
2018-09-04T04:00:55.307Z,0.00
2018-09-04T04:01:55.458Z,0.00
2018-09-04T04:02:55.605Z,0.00
2018-09-04T04:03:55.745Z,0.00
2018-09-04T04:04:55.890Z,0.00
2018-09-04T04:05:56.091Z,0.00
2018-09-04T04:06:56.113Z,0.00
2018-09-04T04:07:56.247Z,0.00
2018-09-04T04:08:56.385Z,0.00
2018-09-04T04:09:56.526Z,0.00
2018-09-04T04:10:56.668Z,0.00
2018-09-04T04:11:56.852Z,0.00
2018-09-04T04:12:56.944Z,0.00
2018-09-04T04:13:57.087Z,0.00
2018-09-04T04:14:57.228Z,0.00
2018-09-04T04:15:57.365Z,0.00
2018-09-04T04:16:57.506Z,0.00
2018-09-04T04:17:57.646Z,0.00
2018-09-04T04:18:57.785Z,0.00
2018-09-04T04:19:57.924Z,0.00
2018-09-04T04:20:58.069Z,0.00
2018-09-04T04:21:58.209Z,0.00
2018-09-04T04:22:58.350Z,0.00
2018-09-04T04:23:58.558Z,0.00
2018-09-04T04:24:58.629Z,0.00
2018-09-04T04:25:58.772Z,0.00
2018-09-04T04:26:58.909Z,0.00
2018-09-04T04:27:59.051Z,0.00
2018-09-04T04:28:59.187Z,0.00
2018-09-04T04:29:59.328Z,0.00
2018-09-04T04:30:59.510Z,0.00
2018-09-04T04:31:59.642Z,0.00
2018-09-04T04:32:59.799Z,0.00
2018-09-04T04:33:59.919Z,0.00
2018-09-04T04:35:00.080Z,0.00
2018-09-04T04:36:00.217Z,0.00
2018-09-04T04:37:00.351Z,0.00
2018-09-04T04:38:00.517Z,0.00
2018-09-04T04:39:00.651Z,0.00
2018-09-04T04:40:00.855Z,0.00
2018-09-04T04:41:00.930Z,0.00
2018-09-04T04:42:01.104Z,0.00
2018-09-04T04:43:01.228Z,0.00
2018-09-04T04:44:01.362Z,0.00
2018-09-04T04:45:01.505Z,0.00
2018-09-04T04:46:01.669Z,0.00
2018-09-04T04:47:01.809Z,0.00
2018-09-04T04:48:02.051Z,0.00
2018-09-04T04:49:02.080Z,0.00
2018-09-04T04:50:02.243Z,0.00
2018-09-04T04:51:02.388Z,0.00
2018-09-04T04:52:02.528Z,0.00
2018-09-04T04:53:02.672Z,0.00
2018-09-04T04:54:02.810Z,0.00
2018-09-04T04:55:02.976Z,0.00
2018-09-04T04:56:03.080Z,0.00
2018-09-04T04:57:03.219Z,0.00
2018-09-04T04:58:03.362Z,0.00
2018-09-04T04:59:03.506Z,0.00
2018-09-04T05:00:03.661Z,0.00
2018-09-04T05:01:03.806Z,0.00
2018-09-04T05:02:04.009Z,0.00
2018-09-04T05:03:04.012Z,0.00
2018-09-04T05:04:04.144Z,0.00
2018-09-04T05:05:04.283Z,0.00
2018-09-04T05:06:04.422Z,0.00
2018-09-04T05:07:04.578Z,0.00
2018-09-04T05:08:04.717Z,0.00
2018-09-04T05:09:04.878Z,0.00
2018-09-04T05:10:05.011Z,0.00
2018-09-04T05:11:05.181Z,0.00
2018-09-04T05:12:05.305Z,0.00
2018-09-04T05:13:05.433Z,0.00
2018-09-04T05:14:05.590Z,0.00
2018-09-04T05:15:05.727Z,5.63
2018-09-04T05:16:05.860Z,5.63
2018-09-04T05:17:06.051Z,5.63
2018-09-04T05:18:06.161Z,5.63
2018-09-04T05:19:06.277Z,5.63
2018-09-04T05:20:06.415Z,5.63
2018-09-04T05:21:06.556Z,5.63
2018-09-04T05:22:06.700Z,5.63
2018-09-04T05:23:06.824Z,5.63
2018-09-04T05:24:06.960Z,5.63
2018-09-04T05:25:07.099Z,5.63
2018-09-04T05:26:07.239Z,5.63
2018-09-04T05:27:07.382Z,5.63
2018-09-04T05:28:07.522Z,5.63
2018-09-04T05:29:07.673Z,5.63
2018-09-04T05:30:07.802Z,5.63
2018-09-04T05:31:07.942Z,5.63
2018-09-04T05:32:08.090Z,5.63
2018-09-04T05:33:08.217Z,5.63
2018-09-04T05:34:08.371Z,5.63
2018-09-04T05:35:08.513Z,5.63
2018-09-04T05:36:08.650Z,5.63
2018-09-04T05:37:08.792Z,5.63
2018-09-04T05:38:08.930Z,5.63
2018-09-04T05:39:09.073Z,5.63
2018-09-04T05:40:09.214Z,5.63
2018-09-04T05:41:09.349Z,11.25
2018-09-04T05:42:09.494Z,11.25
2018-09-04T05:43:09.664Z,11.25
2018-09-04T05:44:09.796Z,11.25
2018-09-04T05:45:09.939Z,11.25
2018-09-04T05:46:10.094Z,11.25
2018-09-04T05:47:10.232Z,11.25
2018-09-04T05:48:10.365Z,11.25
2018-09-04T05:49:10.514Z,11.25
2018-09-04T05:50:10.642Z,11.25
2018-09-04T05:51:10.788Z,11.25
2018-09-04T05:52:10.925Z,11.25
2018-09-04T05:53:11.064Z,11.25
2018-09-04T05:54:11.199Z,11.25
2018-09-04T05:55:11.353Z,16.88
2018-09-04T05:56:11.480Z,16.88
2018-09-04T05:57:11.615Z,16.88
2018-09-04T05:58:11.753Z,16.88
2018-09-04T05:59:11.919Z,22.50
2018-09-04T06:00:12.049Z,22.50
2018-09-04T06:01:12.192Z,28.13
2018-09-04T06:02:12.325Z,28.13
2018-09-04T06:03:12.472Z,33.75
2018-09-04T06:04:12.608Z,33.75
2018-09-04T06:05:12.748Z,33.75
2018-09-04T06:06:12.892Z,33.75
2018-09-04T06:07:13.060Z,39.38
2018-09-04T06:08:13.197Z,39.38
2018-09-04T06:09:13.335Z,39.38
2018-09-04T06:10:13.480Z,45.00
2018-09-04T06:11:13.631Z,45.00
2018-09-04T06:12:13.756Z,50.63
2018-09-04T06:13:13.889Z,50.63
2018-09-04T06:14:14.032Z,50.63
2018-09-04T06:15:14.178Z,56.25
2018-09-04T06:16:14.309Z,56.25
2018-09-04T06:17:14.445Z,56.25
2018-09-04T06:18:14.598Z,56.25
2018-09-04T06:19:14.732Z,61.88
2018-09-04T06:20:14.876Z,61.88
2018-09-04T06:21:15.017Z,61.88
2018-09-04T06:22:15.159Z,67.50
2018-09-04T06:23:15.296Z,67.50
2018-09-04T06:24:15.440Z,67.50
2018-09-04T06:25:15.611Z,67.50
2018-09-04T06:26:15.733Z,73.13
2018-09-04T06:27:15.875Z,73.13
2018-09-04T06:28:16.015Z,73.13
2018-09-04T06:29:16.157Z,67.50
2018-09-04T06:30:16.296Z,67.50
2018-09-04T06:31:16.441Z,61.88
2018-09-04T06:32:16.576Z,61.88
2018-09-04T06:33:16.772Z,56.25
2018-09-04T06:34:16.878Z,56.25
2018-09-04T06:35:17.020Z,56.25
2018-09-04T06:36:17.241Z,56.25
2018-09-04T06:37:17.301Z,56.25
2018-09-04T06:38:17.436Z,56.25
2018-09-04T06:39:18.343Z,56.25
2018-09-04T06:40:17.760Z,56.25
2018-09-04T06:41:17.897Z,56.25
2018-09-04T06:42:18.069Z,56.25
2018-09-04T06:43:18.210Z,56.25
2018-09-04T06:44:18.346Z,50.63
2018-09-04T06:45:18.488Z,50.63
2018-09-04T06:46:18.628Z,50.63
2018-09-04T06:47:18.767Z,50.63
2018-09-04T06:48:18.907Z,50.63
2018-09-04T06:49:19.044Z,50.63
2018-09-04T06:50:19.187Z,50.63
2018-09-04T06:51:19.327Z,56.25
2018-09-04T06:52:19.471Z,56.25
2018-09-04T06:53:19.604Z,56.25
2018-09-04T06:54:19.759Z,56.25
2018-09-04T06:55:19.890Z,56.25
2018-09-04T06:56:20.040Z,50.63
2018-09-04T06:57:20.847Z,50.63
2018-09-04T06:58:20.393Z,56.25
2018-09-04T06:59:20.537Z,61.88
2018-09-04T07:00:20.671Z,61.88
2018-09-04T07:01:20.811Z,61.88
2018-09-04T07:02:20.954Z,61.88
2018-09-04T07:03:21.085Z,56.25
2018-09-04T07:04:21.236Z,50.63
2018-09-04T07:05:21.370Z,56.25
2018-09-04T07:06:21.509Z,61.88
2018-09-04T07:07:21.646Z,61.88
2018-09-04T07:08:21.783Z,61.88
2018-09-04T07:09:21.928Z,56.25
2018-09-04T07:10:22.064Z,56.25
2018-09-04T07:11:22.208Z,56.25
2018-09-04T07:12:22.352Z,50.63
2018-09-04T07:13:22.488Z,50.63
2018-09-04T07:14:22.619Z,45.00
2018-09-04T07:15:22.762Z,39.38
2018-09-04T07:16:22.899Z,45.00
2018-09-04T07:17:23.040Z,45.00
2018-09-04T07:18:23.183Z,45.00
2018-09-04T07:19:23.324Z,50.63
2018-09-04T07:20:23.461Z,56.25
2018-09-04T07:21:23.603Z,61.88
2018-09-04T07:22:23.740Z,61.88
2018-09-04T07:23:23.885Z,67.50
2018-09-04T07:24:24.067Z,67.50
2018-09-04T07:25:24.173Z,73.13
2018-09-04T07:26:24.326Z,73.13
2018-09-04T07:27:24.465Z,78.75
2018-09-04T07:28:25.351Z,78.75
2018-09-04T07:29:24.790Z,78.75
2018-09-04T07:30:24.921Z,84.38
2018-09-04T07:31:25.067Z,78.75
2018-09-04T07:32:25.219Z,78.75
2018-09-04T07:33:25.353Z,78.75
2018-09-04T07:34:25.488Z,84.38
2018-09-04T07:35:25.627Z,84.38
2018-09-04T07:36:25.843Z,84.38
2018-09-04T07:37:25.908Z,67.50
2018-09-04T07:38:26.047Z,61.88
2018-09-04T07:39:26.189Z,56.25
2018-09-04T07:40:26.340Z,56.25
2018-09-04T07:41:26.479Z,61.88
2018-09-04T07:42:26.618Z,61.88
2018-09-04T07:43:26.761Z,61.88
2018-09-04T07:44:26.931Z,61.88
2018-09-04T07:45:27.064Z,67.50
2018-09-04T07:46:27.200Z,67.50
2018-09-04T07:47:27.343Z,73.13
2018-09-04T07:48:27.499Z,73.13
2018-09-04T07:49:27.631Z,73.13
2018-09-04T07:50:27.784Z,73.13
2018-09-04T07:51:27.957Z,78.75
2018-09-04T07:52:28.080Z,73.13
2018-09-04T07:53:28.218Z,73.13
2018-09-04T07:54:28.367Z,73.13
2018-09-04T07:55:28.503Z,73.13
2018-09-04T07:56:28.639Z,73.13
2018-09-04T07:57:28.781Z,73.13
2018-09-04T07:58:28.929Z,73.13
2018-09-04T07:59:29.074Z,73.13
2018-09-04T08:00:29.213Z,73.13
2018-09-04T08:01:29.353Z,73.13
2018-09-04T08:02:29.513Z,73.13
2018-09-04T08:03:29.661Z,73.13
2018-09-04T08:04:29.804Z,78.75
2018-09-04T08:05:30.878Z,78.75
2018-09-04T08:06:30.066Z,84.38
2018-09-04T08:07:30.197Z,84.38
2018-09-04T08:08:30.349Z,90.00
2018-09-04T08:09:30.485Z,95.63
2018-09-04T08:10:30.636Z,101.25
2018-09-04T08:11:30.777Z,106.88
2018-09-04T08:12:30.916Z,106.88
2018-09-04T08:13:31.059Z,106.88
2018-09-04T08:14:31.221Z,106.88
2018-09-04T08:15:31.360Z,106.88
2018-09-04T08:16:31.496Z,106.88
2018-09-04T08:17:31.695Z,112.50
2018-09-04T08:18:31.724Z,118.13
2018-09-04T08:19:31.863Z,123.75
2018-09-04T08:20:32.183Z,123.75
2018-09-04T08:21:32.151Z,129.38
2018-09-04T08:22:32.287Z,135.00
2018-09-04T08:23:32.423Z,135.00
2018-09-04T08:24:32.564Z,135.00
2018-09-04T08:25:32.709Z,135.00
2018-09-04T08:26:32.851Z,140.63
2018-09-04T08:27:32.995Z,140.63
2018-09-04T08:28:33.135Z,146.25
2018-09-04T08:29:33.271Z,151.88
2018-09-04T08:30:33.417Z,157.50
2018-09-04T08:31:33.558Z,157.50
2018-09-04T08:32:33.704Z,151.88
2018-09-04T08:33:33.847Z,157.50
2018-09-04T08:34:33.980Z,157.50
2018-09-04T08:35:34.123Z,157.50
2018-09-04T08:36:34.264Z,157.50
2018-09-04T08:37:34.412Z,157.50
2018-09-04T08:38:34.547Z,157.50
2018-09-04T08:39:34.698Z,163.13
2018-09-04T08:40:34.839Z,163.13
2018-09-04T08:41:34.976Z,163.13
2018-09-04T08:42:35.120Z,163.13
2018-09-04T08:43:35.256Z,163.13
2018-09-04T08:44:35.402Z,163.13
2018-09-04T08:45:35.539Z,168.75
2018-09-04T08:46:35.705Z,157.50
2018-09-04T08:47:35.851Z,151.88
2018-09-04T08:48:35.994Z,146.25
2018-09-04T08:49:36.159Z,151.88
2018-09-04T08:50:36.287Z,146.25
2018-09-04T08:51:36.420Z,146.25
2018-09-04T08:52:36.565Z,146.25
2018-09-04T08:53:36.773Z,146.25
2018-09-04T08:54:36.844Z,146.25
2018-09-04T08:55:36.984Z,146.25
2018-09-04T08:56:37.123Z,146.25
2018-09-04T08:57:37.269Z,140.63
2018-09-04T08:58:37.510Z,140.63
2018-09-04T08:59:37.543Z,135.00
2018-09-04T09:00:37.687Z,135.00
2018-09-04T09:01:38.379Z,140.63
2018-09-04T09:02:38.001Z,140.63
2018-09-04T09:03:38.198Z,140.63
2018-09-04T09:04:38.316Z,140.63
2018-09-04T09:05:38.555Z,140.63
2018-09-04T09:06:38.596Z,140.63
2018-09-04T09:07:38.733Z,140.63
2018-09-04T09:08:38.876Z,140.63
2018-09-04T09:09:39.020Z,140.63
2018-09-04T09:10:39.177Z,140.63
2018-09-04T09:11:39.302Z,140.63
2018-09-04T09:12:39.453Z,140.63
2018-09-04T09:13:40.382Z,140.63
2018-09-04T09:14:39.737Z,140.63
2018-09-04T09:15:39.893Z,140.63
2018-09-04T09:16:40.036Z,140.63
2018-09-04T09:17:40.178Z,140.63
2018-09-04T09:18:40.358Z,140.63
2018-09-04T09:19:40.506Z,140.63
2018-09-04T09:20:40.649Z,140.63
2018-09-04T09:21:40.787Z,146.25
2018-09-04T09:22:41.006Z,146.25
2018-09-04T09:23:41.077Z,146.25
2018-09-04T09:24:41.215Z,146.25
2018-09-04T09:25:41.351Z,146.25
2018-09-04T09:26:41.500Z,146.25
2018-09-04T09:27:41.632Z,146.25
2018-09-04T09:28:41.822Z,146.25
2018-09-04T09:29:41.978Z,146.25
2018-09-04T09:30:42.144Z,151.88
2018-09-04T09:31:42.288Z,151.88
2018-09-04T09:32:42.431Z,151.88
2018-09-04T09:33:42.590Z,151.88
2018-09-04T09:34:42.727Z,151.88
2018-09-04T09:35:42.872Z,151.88
2018-09-04T09:36:43.030Z,151.88
2018-09-04T09:37:43.163Z,151.88
2018-09-04T09:38:43.301Z,151.88
2018-09-04T09:39:43.443Z,151.88
2018-09-04T09:40:44.394Z,157.50
2018-09-04T09:41:43.754Z,157.50
2018-09-04T09:42:43.892Z,157.50
2018-09-04T09:43:44.108Z,157.50
2018-09-04T09:44:44.152Z,157.50
2018-09-04T09:45:44.285Z,163.13
2018-09-04T09:46:44.918Z,163.13
2018-09-04T09:47:44.583Z,163.13
2018-09-04T09:48:44.728Z,163.13
2018-09-04T09:49:44.868Z,168.75
2018-09-04T09:50:45.050Z,168.75
2018-09-04T09:51:45.163Z,168.75
2018-09-04T09:52:45.348Z,168.75
2018-09-04T09:53:45.431Z,168.75
2018-09-04T09:54:45.572Z,168.75
2018-09-04T09:55:45.720Z,174.38
2018-09-04T09:56:45.943Z,174.38
2018-09-04T09:57:45.991Z,174.38
2018-09-04T09:58:46.137Z,174.38
2018-09-04T09:59:46.348Z,180.00
2018-09-04T10:00:46.406Z,180.00
2018-09-04T10:01:46.552Z,180.00
2018-09-04T10:02:46.702Z,185.63
2018-09-04T10:03:46.862Z,185.63
2018-09-04T10:04:46.985Z,185.63
2018-09-04T10:05:47.125Z,185.63
2018-09-04T10:06:47.294Z,185.63
2018-09-04T10:07:47.469Z,191.25
2018-09-04T10:08:47.585Z,191.25
2018-09-04T10:09:47.821Z,191.25
2018-09-04T10:10:47.883Z,191.25
2018-09-04T10:11:48.029Z,191.25
2018-09-04T10:12:48.179Z,196.88
2018-09-04T10:13:48.318Z,196.88
2018-09-04T10:14:48.462Z,196.88
2018-09-04T10:15:48.607Z,196.88
2018-09-04T10:16:48.751Z,196.88
2018-09-04T10:17:48.891Z,196.88
2018-09-04T10:18:49.031Z,196.88
2018-09-04T10:19:49.226Z,196.88
2018-09-04T10:20:49.331Z,202.50
2018-09-04T10:21:49.473Z,202.50
2018-09-04T10:22:49.619Z,202.50
2018-09-04T10:23:49.758Z,208.13
2018-09-04T10:24:49.899Z,208.13
2018-09-04T10:25:50.043Z,202.50
2018-09-04T10:26:50.182Z,208.13
2018-09-04T10:27:50.323Z,213.75
2018-09-04T10:28:50.461Z,213.75
2018-09-04T10:29:50.607Z,213.75
2018-09-04T10:30:50.750Z,219.38
2018-09-04T10:31:50.901Z,219.38
2018-09-04T10:32:51.042Z,219.38
2018-09-04T10:33:51.177Z,219.38
2018-09-04T10:34:51.319Z,219.38
2018-09-04T10:35:51.454Z,225.00
2018-09-04T10:36:51.598Z,225.00
2018-09-04T10:37:51.740Z,225.00
2018-09-04T10:38:51.885Z,225.00
2018-09-04T10:39:52.027Z,230.63
2018-09-04T10:40:52.170Z,230.63
2018-09-04T10:41:52.307Z,230.63
2018-09-04T10:42:52.447Z,230.63
2018-09-04T10:43:52.590Z,236.25
2018-09-04T10:44:52.733Z,241.88
2018-09-04T10:45:52.875Z,241.88
2018-09-04T10:46:53.018Z,241.88
2018-09-04T10:47:53.168Z,241.88
2018-09-04T10:48:53.302Z,241.88
2018-09-04T10:49:53.454Z,247.50
2018-09-04T10:50:53.597Z,247.50
2018-09-04T10:51:53.745Z,247.50
2018-09-04T10:52:53.886Z,247.50
2018-09-04T10:53:54.033Z,247.50
2018-09-04T10:54:54.194Z,247.50
2018-09-04T10:55:54.357Z,247.50
2018-09-04T10:56:54.494Z,247.50
2018-09-04T10:57:54.760Z,247.50
2018-09-04T10:58:54.774Z,236.25
2018-09-04T10:59:54.913Z,236.25
2018-09-04T11:00:55.059Z,241.88
2018-09-04T11:01:55.196Z,241.88
2018-09-04T11:02:55.340Z,241.88
2018-09-04T11:03:55.483Z,225.00
2018-09-04T11:04:55.624Z,213.75
2018-09-04T11:05:55.771Z,196.88
2018-09-04T11:06:56.436Z,236.25
2018-09-04T11:07:56.088Z,225.00
2018-09-04T11:08:56.319Z,303.75
2018-09-04T11:09:56.630Z,320.63
2018-09-04T11:10:56.579Z,225.00
2018-09-04T11:11:56.725Z,191.25
2018-09-04T11:12:56.875Z,157.50
2018-09-04T11:13:57.015Z,236.25
2018-09-04T11:14:57.154Z,185.63
2018-09-04T11:15:57.296Z,168.75
2018-09-04T11:16:57.457Z,157.50
2018-09-04T11:17:57.594Z,163.13
2018-09-04T11:18:57.747Z,157.50
2018-09-04T11:19:57.894Z,163.13
2018-09-04T11:20:58.061Z,168.75
2018-09-04T11:21:58.209Z,168.75
2018-09-04T11:22:58.352Z,180.00
2018-09-04T11:23:58.494Z,180.00
2018-09-04T11:24:58.651Z,180.00
2018-09-04T11:25:58.788Z,185.63
2018-09-04T11:26:58.932Z,191.25
2018-09-04T11:27:59.066Z,196.88
2018-09-04T11:28:59.258Z,213.75
2018-09-04T11:29:59.384Z,315.00
2018-09-04T11:30:59.532Z,354.38
2018-09-04T11:31:59.710Z,382.50
2018-09-04T11:32:59.847Z,382.50
2018-09-04T11:33:59.993Z,410.63
2018-09-04T11:35:00.132Z,354.38
2018-09-04T11:36:00.296Z,371.25
2018-09-04T11:37:00.432Z,365.63
2018-09-04T11:38:00.580Z,354.38
2018-09-04T11:39:00.776Z,343.13
2018-09-04T11:40:00.913Z,281.25
2018-09-04T11:41:01.051Z,281.25
2018-09-04T11:42:01.198Z,270.00
2018-09-04T11:43:01.348Z,225.00
2018-09-04T11:44:01.487Z,202.50
2018-09-04T11:45:01.637Z,196.88
2018-09-04T11:46:01.776Z,191.25
2018-09-04T11:47:02.146Z,191.25
2018-09-04T11:48:02.104Z,225.00
2018-09-04T11:49:02.255Z,618.75
2018-09-04T11:50:02.396Z,489.38
2018-09-04T11:51:02.550Z,455.63
2018-09-04T11:52:02.695Z,303.75
2018-09-04T11:53:02.837Z,275.63
2018-09-04T11:54:02.984Z,264.38
2018-09-04T11:55:03.147Z,253.13
2018-09-04T11:56:03.287Z,264.38
2018-09-04T11:57:03.435Z,1158.75
2018-09-04T11:58:03.574Z,1811.25
2018-09-04T11:59:03.727Z,3054.38
2018-09-04T12:00:03.870Z,2846.25
2018-09-04T12:01:04.025Z,2289.38
2018-09-04T12:02:04.221Z,2947.50
2018-09-04T12:03:04.318Z,3217.50
2018-09-04T12:04:04.459Z,3144.38
2018-09-04T12:05:04.600Z,2947.50
2018-09-04T12:06:04.749Z,2840.63
2018-09-04T12:07:04.887Z,2925.00
2018-09-04T12:08:05.037Z,3076.88
2018-09-04T12:09:05.183Z,3043.13
2018-09-04T12:10:05.340Z,2818.13
2018-09-04T12:11:05.480Z,2722.50
2018-09-04T12:12:05.631Z,2643.75
2018-09-04T12:13:05.802Z,866.25
2018-09-04T12:14:05.926Z,500.63
2018-09-04T12:15:06.075Z,376.88
2018-09-04T12:16:06.218Z,1125.00
2018-09-04T12:17:06.367Z,2289.38
2018-09-04T12:18:06.526Z,2452.50
2018-09-04T12:19:06.721Z,2497.50
2018-09-04T12:20:06.819Z,2576.25
2018-09-04T12:21:07.157Z,2818.13
2018-09-04T12:22:07.111Z,3009.38
2018-09-04T12:23:07.256Z,2913.75
2018-09-04T12:24:07.416Z,2840.63
2018-09-04T12:25:07.569Z,2880.00
2018-09-04T12:26:07.721Z,2733.75
2018-09-04T12:27:07.892Z,2711.25
2018-09-04T12:28:08.024Z,2694.38
2018-09-04T12:29:08.179Z,393.75
2018-09-04T12:30:08.322Z,337.50
2018-09-04T12:31:08.473Z,444.38
2018-09-04T12:32:08.641Z,2655.00
2018-09-04T12:33:08.796Z,2885.63
2018-09-04T12:34:08.933Z,3088.13
2018-09-04T12:35:09.073Z,3172.50
2018-09-04T12:36:09.230Z,3155.63
2018-09-04T12:37:09.383Z,3138.75
2018-09-04T12:38:09.541Z,3121.88
2018-09-04T12:39:09.689Z,3037.50
2018-09-04T12:40:09.847Z,3116.25
2018-09-04T12:41:10.001Z,3031.88
2018-09-04T12:42:10.157Z,3060.00
2018-09-04T12:43:10.303Z,3043.13
2018-09-04T12:44:10.489Z,2896.88
2018-09-04T12:45:10.611Z,2925.00
2018-09-04T12:46:10.772Z,3009.38
2018-09-04T12:47:10.940Z,2953.13
2018-09-04T12:48:11.127Z,2925.00
2018-09-04T12:49:11.255Z,3009.38
2018-09-04T12:50:11.400Z,2902.50
2018-09-04T12:51:11.584Z,1158.75
2018-09-04T12:52:11.801Z,2801.25
2018-09-04T12:53:11.912Z,2767.50
2018-09-04T12:54:12.068Z,2756.25